FNMA

Malanje

Malanje, Angola
METAR FNMA 171500Z 09008KT 8000 BKN022 26/17 Q1013
Observed Flight Rules
Aug-17 @ 15:00 UTC (2 hours ago) Marginal Visual Flight Rules
Wind Visibility Clouds
90° at 8 knots 7,998 meters
  • Broken at 2,200' AGL
Temperatures Readings
Current 26°C / 79°F
Dewpoint 17°C / 63°F
Humidity 58%
Altimeter 29.91" Hg
Pressure 1013 hPa
Elevation 1173
METAR FNMA 171500Z 09008KT 8000 BKN022 26/17 Q1013
Observed Flight Rules
Aug-17 @ 15:00 UTC
(2 hours ago)
MVFR
Wind Visibility
90° at 8 knots 7,998 meters
Clouds
  • Broken at 2,200' AGL
Temperature Dewpoint
26°C / 79°F 17°C / 63°F
Humidity Altimeter Pressure
58% 29.91" Hg 1013 hPa